Airfield :
LOGIN :

Register | Disclaimer

   EN    FR    IT 

 










Legend :    VFR   Marginal VFR   IFR   Intensive IFR   Very Intensive IFR
Visi :
Ceiling :
>= 8 km
>= 3000ft
5 to 8 km
1000 to 3000 ft
1500m to 5 km
500 to 1000 ft
800 to 1500m
200 to 500 ft
< 800m
< 200 ft
Symbols :   Thunderstorms  Fog  Heavy snow  Heavy precipitations  Wind > 20 kt
SIGMETs :     Misc.  Thunderstorms  Icing  Turbulence  Mountain Waves  Volcanic Ashes






- Airport Elevation : 146 ft
- IATA code : RKE


EKRK - Roskilde Tune

CURRENT METAR :
  • 021620Z AUTO 25020G33KT 9999 BKN026/// 07/02 Q0997

EXPIRED METARs :
  • 021550Z AUTO 25024G36KT 9999 OVC028/// 08/02 Q0997
  • 021520Z AUTO 26026G38KT 220V280 9999 OVC029/// 08/03 Q0998
  • 021450Z AUTO 26027G43KT 9999 OVC034/// 09/02 Q0997
  • 021420Z AUTO 25024G40KT 9999 OVC037/// 09/01 Q0998
  • 021350Z AUTO 26025G40KT 220V280 9999 OVC037/// 09/01 Q0999

TAF TAF EKRK
Valid from the 02 at 15:00 until the 03 at 00:00 UTC


021421Z 0215/0224 26022KT 9999 BKN020
TEMPO 0215/0218 27025G42KT 4000 SHRA BKN012TCU
TEMPO 0218/0224 27020G30KT 4000 SHRA BKN012TCU



MET'MAP, your aeronautical weather chart ! - Copyright ORBIFLY December 2007 - Disclaimer

ORBIFLY MET'MAP TEAM :

Programming & Development : Alexandra Zaïnal
Concept & original design : Baudouin d'Aumeries
Assistance for programming : Marc-Olivier Méhu
Technical & hardware support : Manuel Goepfert

Contact : metmap@orbifly.com




SOURCES & CREDITS :

   NOAA